PWSweather.com
Personal Weather Stations
Station Observations
WILS01
Leuven, WilseleBE 3012

LeuvenWilseleBE 3012

Lat: 50.89518, Lon: 4.69741

Elevation: 120

Station Type: DAVIS VP2

Latest ConditionsUpdated 9:27:38 PM GMT+01:01 Saturday, Oct 25, 2014
Currently Today's Max Today's Min Today's Average
Temperature 53.8°F12.1°C 59.0°F15.0°C 52.7°F11.5°C 55.0°F12.8°C
Dew Point 50.9°F10.5°C 57.0°F13.9°C 48.9°F9.4°C 52.9°F11.6°C
Winds Calm Calm 2.9 mph SW4.7 kmh SW - 0.9 mph 1.4 kmh
Wind Gusts -- 3.4 mph5.5 kmh - -
Humidity 90% 97% 77% 93%
Pressure 30.19 in1022.4 mb 30.19 in1022.4 mb 30.01 in1016.3 mb -
Precipitation - 0.08 in2.0 mm - -
Hour Temp Dew Point Humidity Winds Wind Gusts Pressure Precip Precip Rate Daily Precip Total
09:27 PM 53.8°F12.1°C 50.9°F10.5°C 90% Calm Calm -- 30.19 in1022.4 mb 0.00 in0.0 mm 0.00 in/hr0.0 mm/hr 0.08 in2.0 mm
09:17 PM 53.8°F12.1°C 50.9°F10.5°C 90% Calm Calm -- 30.19 in1022.4 mb 0.00 in0.0 mm 0.00 in/hr0.0 mm/hr 0.08 in2.0 mm
09:06 PM 53.6°F12.0°C 50.7°F10.4°C 90% Calm Calm -- 30.18 in1022.0 mb 0.00 in0.0 mm 0.00 in/hr0.0 mm/hr 0.08 in2.0 mm
08:56 PM 53.6°F12.0°C 50.7°F10.4°C 90% Calm Calm -- 30.18 in1022.0 mb 0.00 in0.0 mm 0.00 in/hr0.0 mm/hr 0.08 in2.0 mm
08:46 PM 53.6°F12.0°C 50.7°F10.4°C 90% Calm Calm -- 30.18 in1022.0 mb 0.00 in0.0 mm 0.00 in/hr0.0 mm/hr 0.08 in2.0 mm
08:35 PM 53.6°F12.0°C 50.4°F10.2°C 89% Calm Calm -- 30.18 in1022.0 mb 0.00 in0.0 mm 0.00 in/hr0.0 mm/hr 0.08 in2.0 mm
08:25 PM 53.8°F12.1°C 50.5°F10.3°C 89% Calm Calm -- 30.18 in1022.0 mb 0.00 in0.0 mm 0.00 in/hr0.0 mm/hr 0.08 in2.0 mm
08:14 PM 53.8°F12.1°C 50.4°F10.2°C 88% Calm Calm -- 30.17 in1021.7 mb 0.00 in0.0 mm 0.00 in/hr0.0 mm/hr 0.08 in2.0 mm
08:04 PM 53.8°F12.1°C 50.4°F10.2°C 88% Calm Calm -- 30.17 in1021.7 mb 0.00 in0.0 mm 0.00 in/hr0.0 mm/hr 0.08 in2.0 mm
07:53 PM 53.8°F12.1°C 50.4°F10.2°C 88% Calm Calm -- 30.17 in1021.7 mb 0.00 in0.0 mm 0.00 in/hr0.0 mm/hr 0.08 in2.0 mm
07:43 PM 53.8°F12.1°C 50.4°F10.2°C 88% Calm Calm -- 30.17 in1021.7 mb 0.00 in0.0 mm 0.00 in/hr0.0 mm/hr 0.08 in2.0 mm
07:32 PM 53.8°F12.1°C 50.0°F10.0°C 87% Calm Calm -- 30.17 in1021.7 mb 0.00 in0.0 mm 0.00 in/hr0.0 mm/hr 0.08 in2.0 mm
07:22 PM 53.8°F12.1°C 50.0°F10.0°C 87% Calm Calm -- 30.17 in1021.7 mb 0.00 in0.0 mm 0.00 in/hr0.0 mm/hr 0.08 in2.0 mm
07:11 PM 54.0°F12.2°C 49.8°F9.9°C 86% Calm Calm -- 30.16 in1021.3 mb 0.00 in0.0 mm 0.00 in/hr0.0 mm/hr 0.08 in2.0 mm
07:01 PM 54.0°F12.2°C 49.8°F9.9°C 86% Calm Calm -- 30.16 in1021.3 mb 0.00 in0.0 mm 0.00 in/hr0.0 mm/hr 0.08 in2.0 mm
06:50 PM 54.1°F12.3°C 49.8°F9.9°C 85% Calm Calm -- 30.16 in1021.3 mb 0.00 in0.0 mm 0.00 in/hr0.0 mm/hr 0.08 in2.0 mm
06:40 PM 54.1°F12.3°C 49.5°F9.7°C 84% Calm Calm -- 30.15 in1021.0 mb 0.00 in0.0 mm 0.00 in/hr0.0 mm/hr 0.08 in2.0 mm
06:29 PM 54.1°F12.3°C 49.3°F9.6°C 83% Calm Calm -- 30.15 in1021.0 mb 0.00 in0.0 mm 0.00 in/hr0.0 mm/hr 0.08 in2.0 mm
06:19 PM 54.5°F12.5°C 49.5°F9.7°C 83% Calm Calm -- 30.16 in1021.3 mb 0.00 in0.0 mm 0.00 in/hr0.0 mm/hr 0.08 in2.0 mm
06:08 PM 54.9°F12.7°C 49.5°F9.7°C 82% Calm Calm -- 30.16 in1021.3 mb 0.00 in0.0 mm 0.00 in/hr0.0 mm/hr 0.08 in2.0 mm
05:58 PM 55.0°F12.8°C 49.3°F9.6°C 81% Calm Calm -- 30.15 in1021.0 mb 0.00 in0.0 mm 0.00 in/hr0.0 mm/hr 0.08 in2.0 mm
05:47 PM 55.4°F13.0°C 48.9°F9.4°C 79% Calm Calm -- 30.15 in1021.0 mb 0.00 in0.0 mm 0.00 in/hr0.0 mm/hr 0.08 in2.0 mm
05:37 PM 55.8°F13.2°C 49.3°F9.6°C 79% Calm Calm -- 30.15 in1021.0 mb 0.00 in0.0 mm 0.00 in/hr0.0 mm/hr 0.08 in2.0 mm
05:27 PM 55.9°F13.3°C 49.1°F9.5°C 78% Calm Calm -- 30.14 in1020.7 mb 0.00 in0.0 mm 0.00 in/hr0.0 mm/hr 0.08 in2.0 mm
05:16 PM 56.3°F13.5°C 49.1°F9.5°C 77% Calm Calm -- 30.14 in1020.7 mb 0.00 in0.0 mm 0.00 in/hr0.0 mm/hr 0.08 in2.0 mm
05:06 PM 56.5°F13.6°C 49.6°F9.8°C 78% Calm Calm 1.1 mph1.8 kmh 30.14 in1020.7 mb 0.00 in0.0 mm 0.00 in/hr0.0 mm/hr 0.08 in2.0 mm
04:56 PM 56.8°F13.8°C 50.0°F10.0°C 78% Calm Calm -- 30.14 in1020.7 mb 0.00 in0.0 mm 0.00 in/hr0.0 mm/hr 0.08 in2.0 mm
04:46 PM 57.4°F14.1°C 50.5°F10.3°C 78% Calm Calm -- 30.14 in1020.7 mb 0.00 in0.0 mm 0.00 in/hr0.0 mm/hr 0.08 in2.0 mm
04:35 PM 57.7°F14.3°C 50.9°F10.5°C 78% Calm Calm -- 30.13 in1020.3 mb 0.00 in0.0 mm 0.00 in/hr0.0 mm/hr 0.08 in2.0 mm
04:25 PM 58.1°F14.5°C 51.3°F10.7°C 78% 0.9 mph WNW1.4 kmh WNW 2.0 mph3.2 kmh 30.13 in1020.3 mb 0.00 in0.0 mm 0.00 in/hr0.0 mm/hr 0.08 in2.0 mm
04:14 PM 58.5°F14.7°C 53.1°F11.7°C 82% Calm Calm 1.3 mph2.1 kmh 30.12 in1020.0 mb 0.00 in0.0 mm 0.00 in/hr0.0 mm/hr 0.08 in2.0 mm
04:04 PM 58.3°F14.6°C 52.9°F11.6°C 82% 0.9 mph S1.4 kmh S 0.9 mph1.4 kmh 30.12 in1020.0 mb 0.00 in0.0 mm 0.00 in/hr0.0 mm/hr 0.08 in2.0 mm
03:54 PM 58.3°F14.6°C 53.1°F11.7°C 82% 0.7 mph W1.1 kmh W -- 30.12 in1020.0 mb 0.00 in0.0 mm 0.00 in/hr0.0 mm/hr 0.08 in2.0 mm
03:44 PM 58.3°F14.6°C 53.1°F11.7°C 83% 0.9 mph SSW1.4 kmh SSW 2.7 mph4.3 kmh 30.12 in1020.0 mb 0.00 in0.0 mm 0.00 in/hr0.0 mm/hr 0.08 in2.0 mm
03:33 PM 58.5°F14.7°C 54.0°F12.2°C 85% 0.9 mph WSW1.4 kmh WSW 1.1 mph1.8 kmh 30.12 in1020.0 mb 0.00 in0.0 mm 0.00 in/hr0.0 mm/hr 0.08 in2.0 mm
03:22 PM 58.5°F14.7°C 54.9°F12.7°C 87% 0.9 mph SSW1.4 kmh SSW 1.6 mph2.6 kmh 30.12 in1020.0 mb 0.00 in0.0 mm 0.00 in/hr0.0 mm/hr 0.08 in2.0 mm
03:12 PM 58.6°F14.8°C 55.8°F13.2°C 90% Calm Calm 0.4 mph0.6 kmh 30.11 in1019.6 mb 0.00 in0.0 mm 0.00 in/hr0.0 mm/hr 0.08 in2.0 mm
03:02 PM 58.6°F14.8°C 55.8°F13.2°C 90% Calm Calm 0.7 mph1.1 kmh 30.11 in1019.6 mb 0.00 in0.0 mm 0.00 in/hr0.0 mm/hr 0.08 in2.0 mm
02:52 PM 58.8°F14.9°C 56.1°F13.4°C 90% Calm Calm -- 30.11 in1019.6 mb 0.00 in0.0 mm 0.00 in/hr0.0 mm/hr 0.08 in2.0 mm
02:42 PM 58.8°F14.9°C 56.1°F13.4°C 91% 0.9 mph SW1.4 kmh SW 0.2 mph0.3 kmh 30.10 in1019.3 mb 0.00 in0.0 mm 0.00 in/hr0.0 mm/hr 0.07 in1.8 mm
02:31 PM 59.0°F15.0°C 56.5°F13.6°C 91% 0.9 mph SW1.4 kmh SW 2.9 mph4.7 kmh 30.10 in1019.3 mb 0.00 in0.0 mm 0.00 in/hr0.0 mm/hr 0.07 in1.8 mm
02:21 PM 58.8°F14.9°C 56.5°F13.6°C 92% 0.9 mph WSW1.4 kmh WSW 0.9 mph1.4 kmh 30.10 in1019.3 mb 0.00 in0.0 mm 0.00 in/hr0.0 mm/hr 0.07 in1.8 mm
02:11 PM 58.6°F14.8°C 56.7°F13.7°C 93% 0.9 mph SSW1.4 kmh SSW 0.4 mph0.6 kmh 30.10 in1019.3 mb 0.00 in0.0 mm 0.00 in/hr0.0 mm/hr 0.07 in1.8 mm
02:00 PM 58.5°F14.7°C 56.7°F13.7°C 94% 0.9 mph SSW1.4 kmh SSW 2.0 mph3.2 kmh 30.10 in1019.3 mb 0.00 in0.0 mm 0.00 in/hr0.0 mm/hr 0.07 in1.8 mm
01:50 PM 58.5°F14.7°C 57.0°F13.9°C 95% 1.6 mph W2.6 kmh W 1.1 mph1.8 kmh 30.10 in1019.3 mb 0.00 in0.0 mm 0.00 in/hr0.0 mm/hr 0.07 in1.8 mm
01:40 PM 58.3°F14.6°C 56.8°F13.8°C 95% 0.9 mph SW1.4 kmh SW 2.5 mph4.0 kmh 30.10 in1019.3 mb 0.00 in0.0 mm 0.00 in/hr0.0 mm/hr 0.07 in1.8 mm
01:29 PM 57.9°F14.4°C 56.8°F13.8°C 96% 0.9 mph WSW1.4 kmh WSW 0.9 mph1.4 kmh 30.10 in1019.3 mb 0.00 in0.0 mm 0.00 in/hr0.0 mm/hr 0.07 in1.8 mm
01:19 PM 57.4°F14.1°C 56.3°F13.5°C 96% 2.0 mph SW3.2 kmh SW 0.7 mph1.1 kmh 30.10 in1019.3 mb 0.00 in0.0 mm 0.00 in/hr0.0 mm/hr 0.07 in1.8 mm
01:09 PM 57.4°F14.1°C 56.3°F13.5°C 96% 0.9 mph SSW1.4 kmh SSW 2.0 mph3.2 kmh 30.10 in1019.3 mb 0.00 in0.0 mm 0.00 in/hr0.0 mm/hr 0.07 in1.8 mm
12:59 PM 57.0°F13.9°C 55.9°F13.3°C 96% 2.0 mph SW3.2 kmh SW 1.3 mph2.1 kmh 30.10 in1019.3 mb 0.00 in0.0 mm 0.00 in/hr0.0 mm/hr 0.07 in1.8 mm
12:49 PM 57.2°F14.0°C 56.1°F13.4°C 96% 2.0 mph SSW3.2 kmh SSW 2.2 mph3.5 kmh 30.10 in1019.3 mb 0.00 in0.0 mm 0.00 in/hr0.0 mm/hr 0.07 in1.8 mm
12:39 PM 57.0°F13.9°C 55.9°F13.3°C 96% 2.0 mph WSW3.2 kmh WSW 1.8 mph2.9 kmh 30.10 in1019.3 mb 0.00 in0.0 mm 0.00 in/hr0.0 mm/hr 0.07 in1.8 mm
12:29 PM 56.8°F13.8°C 55.8°F13.2°C 96% 0.9 mph WSW1.4 kmh WSW 2.5 mph4.0 kmh 30.10 in1019.3 mb 0.00 in0.0 mm 0.00 in/hr0.0 mm/hr 0.07 in1.8 mm
12:19 PM 56.7°F13.7°C 55.6°F13.1°C 96% 2.0 mph SSW3.2 kmh SSW 0.9 mph1.4 kmh 30.10 in1019.3 mb 0.00 in0.0 mm 0.00 in/hr0.0 mm/hr 0.07 in1.8 mm
12:08 PM 56.7°F13.7°C 55.6°F13.1°C 96% 2.0 mph SSW3.2 kmh SSW 1.8 mph2.9 kmh 30.10 in1019.3 mb 0.00 in0.0 mm 0.00 in/hr0.0 mm/hr 0.07 in1.8 mm
11:58 AM 56.7°F13.7°C 55.6°F13.1°C 96% 2.7 mph WSW4.3 kmh WSW 2.0 mph3.2 kmh 30.10 in1019.3 mb 0.00 in0.0 mm 0.00 in/hr0.0 mm/hr 0.07 in1.8 mm
11:47 AM 56.7°F13.7°C 55.6°F13.1°C 96% 1.1 mph SW1.8 kmh SW 3.4 mph5.5 kmh 30.10 in1019.3 mb 0.00 in0.0 mm 0.00 in/hr0.0 mm/hr 0.07 in1.8 mm
11:37 AM 56.5°F13.6°C 55.4°F13.0°C 96% 0.9 mph WSW1.4 kmh WSW 0.9 mph1.4 kmh 30.10 in1019.3 mb 0.00 in0.0 mm 0.00 in/hr0.0 mm/hr 0.07 in1.8 mm
11:27 AM 56.3°F13.5°C 55.2°F12.9°C 96% 0.9 mph WSW1.4 kmh WSW 0.4 mph0.6 kmh 30.09 in1019.0 mb 0.00 in0.0 mm 0.00 in/hr0.0 mm/hr 0.07 in1.8 mm
11:16 AM 56.1°F13.4°C 55.2°F12.9°C 97% 2.0 mph SW3.2 kmh SW 1.8 mph2.9 kmh 30.09 in1019.0 mb 0.00 in0.0 mm 0.00 in/hr0.0 mm/hr 0.07 in1.8 mm
11:06 AM 55.9°F13.3°C 54.9°F12.7°C 96% 1.1 mph SW1.8 kmh SW 2.2 mph3.5 kmh 30.09 in1019.0 mb 0.00 in0.0 mm 0.00 in/hr0.0 mm/hr 0.07 in1.8 mm
10:55 AM 55.9°F13.3°C 55.0°F12.8°C 97% 0.9 mph SW1.4 kmh SW 1.6 mph2.6 kmh 30.09 in1019.0 mb 0.00 in0.0 mm 0.00 in/hr0.0 mm/hr 0.07 in1.8 mm
10:45 AM 55.8°F13.2°C 54.9°F12.7°C 97% 0.9 mph SW1.4 kmh SW 0.4 mph0.6 kmh 30.08 in1018.6 mb 0.00 in0.0 mm 0.00 in/hr0.0 mm/hr 0.07 in1.8 mm
10:34 AM 55.6°F13.1°C 54.7°F12.6°C 97% 0.9 mph SW1.4 kmh SW 1.6 mph2.6 kmh 30.09 in1019.0 mb 0.00 in0.0 mm 0.00 in/hr0.0 mm/hr 0.07 in1.8 mm
10:24 AM 55.4°F13.0°C 54.5°F12.5°C 97% Calm Calm 1.8 mph2.9 kmh 30.09 in1019.0 mb 0.00 in0.0 mm 0.00 in/hr0.0 mm/hr 0.07 in1.8 mm
10:14 AM 55.2°F12.9°C 54.3°F12.4°C 97% Calm Calm 0.7 mph1.1 kmh 30.08 in1018.6 mb 0.00 in0.0 mm 0.00 in/hr0.0 mm/hr 0.07 in1.8 mm
10:03 AM 55.0°F12.8°C 54.1°F12.3°C 97% 0.9 mph SE1.4 kmh SE -- 30.08 in1018.6 mb 0.00 in0.0 mm 0.00 in/hr0.0 mm/hr 0.07 in1.8 mm
09:53 AM 54.9°F12.7°C 54.0°F12.2°C 97% 1.1 mph S1.8 kmh S 1.1 mph1.8 kmh 30.08 in1018.6 mb 0.00 in0.0 mm 0.00 in/hr0.0 mm/hr 0.07 in1.8 mm
09:42 AM 54.7°F12.6°C 53.8°F12.1°C 97% 0.9 mph SW1.4 kmh SW 1.1 mph1.8 kmh 30.07 in1018.3 mb 0.00 in0.0 mm 0.00 in/hr0.0 mm/hr 0.07 in1.8 mm
09:32 AM 54.7°F12.6°C 53.8°F12.1°C 97% 0.9 mph SW1.4 kmh SW 1.8 mph2.9 kmh 30.07 in1018.3 mb 0.00 in0.0 mm 0.00 in/hr0.0 mm/hr 0.07 in1.8 mm
09:22 AM 54.3°F12.4°C 53.4°F11.9°C 97% 0.9 mph WSW1.4 kmh WSW 1.1 mph1.8 kmh 30.07 in1018.3 mb 0.00 in0.0 mm 0.00 in/hr0.0 mm/hr 0.07 in1.8 mm
09:12 AM 54.3°F12.4°C 53.4°F11.9°C 97% 2.0 mph WSW3.2 kmh WSW 1.1 mph1.8 kmh 30.07 in1018.3 mb 0.00 in0.0 mm 0.00 in/hr0.0 mm/hr 0.07 in1.8 mm
09:01 AM 54.3°F12.4°C 53.4°F11.9°C 97% 0.9 mph SW1.4 kmh SW 1.3 mph2.1 kmh 30.06 in1017.9 mb 0.00 in0.0 mm 0.00 in/hr0.0 mm/hr 0.07 in1.8 mm
08:51 AM 54.1°F12.3°C 53.2°F11.8°C 97% 0.9 mph SW1.4 kmh SW 0.4 mph0.6 kmh 30.06 in1017.9 mb 0.00 in0.0 mm 0.00 in/hr0.0 mm/hr 0.07 in1.8 mm
08:41 AM 54.1°F12.3°C 53.2°F11.8°C 97% 0.9 mph SW1.4 kmh SW 0.4 mph0.6 kmh 30.06 in1017.9 mb 0.00 in0.0 mm 0.00 in/hr0.0 mm/hr 0.07 in1.8 mm
08:31 AM 54.1°F12.3°C 53.2°F11.8°C 97% 0.9 mph SSW1.4 kmh SSW 0.4 mph0.6 kmh 30.06 in1017.9 mb 0.00 in0.0 mm 0.00 in/hr0.0 mm/hr 0.07 in1.8 mm
08:20 AM 54.0°F12.2°C 53.1°F11.7°C 97% 0.9 mph S1.4 kmh S 1.8 mph2.9 kmh 30.06 in1017.9 mb 0.00 in0.0 mm 0.00 in/hr0.0 mm/hr 0.07 in1.8 mm
08:10 AM 54.0°F12.2°C 53.1°F11.7°C 97% 0.9 mph S1.4 kmh S 0.7 mph1.1 kmh 30.06 in1017.9 mb 0.00 in0.0 mm 0.00 in/hr0.0 mm/hr 0.07 in1.8 mm
07:59 AM 54.0°F12.2°C 53.1°F11.7°C 97% Calm Calm 1.1 mph1.8 kmh 30.05 in1017.6 mb 0.00 in0.0 mm 0.00 in/hr0.0 mm/hr 0.07 in1.8 mm
07:49 AM 54.0°F12.2°C 53.1°F11.7°C 97% 0.9 mph SSW1.4 kmh SSW 1.3 mph2.1 kmh 30.05 in1017.6 mb 0.00 in0.0 mm 0.00 in/hr0.0 mm/hr 0.07 in1.8 mm
07:38 AM 54.0°F12.2°C 53.1°F11.7°C 97% Calm Calm 1.8 mph2.9 kmh 30.05 in1017.6 mb 0.00 in0.0 mm 0.00 in/hr0.0 mm/hr 0.07 in1.8 mm
07:28 AM 53.8°F12.1°C 52.9°F11.6°C 97% Calm Calm 0.9 mph1.4 kmh 30.04 in1017.3 mb 0.00 in0.0 mm 0.00 in/hr0.0 mm/hr 0.07 in1.8 mm
07:17 AM 53.8°F12.1°C 52.9°F11.6°C 97% 0.9 mph S1.4 kmh S 0.4 mph0.6 kmh 30.04 in1017.3 mb 0.00 in0.0 mm 0.00 in/hr0.0 mm/hr 0.07 in1.8 mm
07:07 AM 53.8°F12.1°C 52.9°F11.6°C 97% 0.9 mph SW1.4 kmh SW 1.1 mph1.8 kmh 30.04 in1017.3 mb 0.00 in0.0 mm 0.00 in/hr0.0 mm/hr 0.07 in1.8 mm
06:57 AM 53.8°F12.1°C 52.9°F11.6°C 97% 0.9 mph WSW1.4 kmh WSW 1.1 mph1.8 kmh 30.04 in1017.3 mb 0.00 in0.0 mm 0.00 in/hr0.0 mm/hr 0.07 in1.8 mm
06:46 AM 54.0°F12.2°C 53.1°F11.7°C 97% Calm Calm 1.1 mph1.8 kmh 30.04 in1017.3 mb 0.00 in0.0 mm 0.00 in/hr0.0 mm/hr 0.07 in1.8 mm
06:36 AM 54.0°F12.2°C 53.1°F11.7°C 97% Calm Calm -- 30.04 in1017.3 mb 0.00 in0.0 mm 0.00 in/hr0.0 mm/hr 0.07 in1.8 mm
06:25 AM 54.0°F12.2°C 53.1°F11.7°C 97% 0.9 mph SW1.4 kmh SW 1.1 mph1.8 kmh 30.04 in1017.3 mb 0.00 in0.0 mm 0.00 in/hr0.0 mm/hr 0.07 in1.8 mm
06:14 AM 54.0°F12.2°C 53.1°F11.7°C 97% 0.9 mph SW1.4 kmh SW 1.8 mph2.9 kmh 30.04 in1017.3 mb 0.00 in0.0 mm 0.00 in/hr0.0 mm/hr 0.07 in1.8 mm
06:04 AM 54.0°F12.2°C 53.1°F11.7°C 97% 1.8 mph WSW2.9 kmh WSW 0.7 mph1.1 kmh 30.04 in1017.3 mb 0.00 in0.0 mm 0.00 in/hr0.0 mm/hr 0.07 in1.8 mm
05:54 AM 53.8°F12.1°C 52.9°F11.6°C 97% 0.9 mph WSW1.4 kmh WSW 2.7 mph4.3 kmh 30.04 in1017.3 mb 0.00 in0.0 mm 0.00 in/hr0.0 mm/hr 0.07 in1.8 mm
05:43 AM 53.8°F12.1°C 52.9°F11.6°C 97% 2.0 mph SW3.2 kmh SW 1.1 mph1.8 kmh 30.04 in1017.3 mb 0.00 in0.0 mm 0.00 in/hr0.0 mm/hr 0.07 in1.8 mm
05:33 AM 53.8°F12.1°C 52.9°F11.6°C 97% 0.9 mph WSW1.4 kmh WSW 1.8 mph2.9 kmh 30.03 in1016.9 mb 0.00 in0.0 mm 0.00 in/hr0.0 mm/hr 0.07 in1.8 mm
05:22 AM 53.8°F12.1°C 52.9°F11.6°C 97% 0.9 mph WSW1.4 kmh WSW 0.2 mph0.3 kmh 30.02 in1016.6 mb 0.00 in0.0 mm 0.00 in/hr0.0 mm/hr 0.07 in1.8 mm
05:12 AM 53.8°F12.1°C 52.9°F11.6°C 97% 0.9 mph SW1.4 kmh SW 1.1 mph1.8 kmh 30.02 in1016.6 mb 0.00 in0.0 mm 0.00 in/hr0.0 mm/hr 0.07 in1.8 mm
05:01 AM 53.8°F12.1°C 52.9°F11.6°C 97% 1.8 mph WSW2.9 kmh WSW 1.1 mph1.8 kmh 30.02 in1016.6 mb 0.00 in0.0 mm 0.00 in/hr0.0 mm/hr 0.07 in1.8 mm
04:51 AM 53.8°F12.1°C 52.9°F11.6°C 97% 2.2 mph SW3.5 kmh SW 2.7 mph4.3 kmh 30.02 in1016.6 mb 0.00 in0.0 mm 0.00 in/hr0.0 mm/hr 0.07 in1.8 mm
04:40 AM 53.8°F12.1°C 52.9°F11.6°C 97% 2.0 mph SSW3.2 kmh SSW 2.0 mph3.2 kmh 30.02 in1016.6 mb 0.00 in0.0 mm 0.00 in/hr0.0 mm/hr 0.07 in1.8 mm
04:30 AM 53.8°F12.1°C 52.9°F11.6°C 97% 2.0 mph SW3.2 kmh SW 3.1 mph5.0 kmh 30.02 in1016.6 mb 0.00 in0.0 mm 0.00 in/hr0.0 mm/hr 0.07 in1.8 mm
04:20 AM 53.8°F12.1°C 52.9°F11.6°C 97% 2.0 mph SW3.2 kmh SW 2.0 mph3.2 kmh 30.02 in1016.6 mb 0.00 in0.0 mm 0.00 in/hr0.0 mm/hr 0.07 in1.8 mm
04:09 AM 53.6°F12.0°C 52.7°F11.5°C 97% 2.0 mph SW3.2 kmh SW 2.2 mph3.5 kmh 30.02 in1016.6 mb 0.00 in0.0 mm 0.00 in/hr0.0 mm/hr 0.07 in1.8 mm
03:59 AM 53.4°F11.9°C 52.5°F11.4°C 97% 0.9 mph SW1.4 kmh SW 2.5 mph4.0 kmh 30.02 in1016.6 mb 0.00 in0.0 mm 0.00 in/hr0.0 mm/hr 0.07 in1.8 mm
03:48 AM 53.4°F11.9°C 52.5°F11.4°C 97% 2.0 mph SSW3.2 kmh SSW 1.8 mph2.9 kmh 30.02 in1016.6 mb 0.00 in0.0 mm 0.00 in/hr0.0 mm/hr 0.07 in1.8 mm
03:38 AM 53.4°F11.9°C 52.5°F11.4°C 97% 1.8 mph SSW2.9 kmh SSW 2.9 mph4.7 kmh 30.02 in1016.6 mb 0.00 in0.0 mm 0.00 in/hr0.0 mm/hr 0.07 in1.8 mm
03:27 AM 53.4°F11.9°C 52.5°F11.4°C 97% 1.6 mph WSW2.6 kmh WSW -- 30.02 in1016.6 mb 0.00 in0.0 mm 0.00 in/hr0.0 mm/hr 0.07 in1.8 mm
03:17 AM 53.4°F11.9°C 52.5°F11.4°C 97% 1.8 mph SSW2.9 kmh SSW 0.9 mph1.4 kmh 30.02 in1016.6 mb 0.00 in0.0 mm 0.00 in/hr0.0 mm/hr 0.07 in1.8 mm
03:06 AM 53.4°F11.9°C 52.5°F11.4°C 97% 2.9 mph SW4.7 kmh SW 3.1 mph5.0 kmh 30.02 in1016.6 mb 0.00 in0.0 mm 0.00 in/hr0.0 mm/hr 0.07 in1.8 mm
02:56 AM 53.2°F11.8°C 52.3°F11.3°C 97% 2.0 mph W3.2 kmh W 1.3 mph2.1 kmh 30.01 in1016.3 mb 0.00 in0.0 mm 0.00 in/hr0.0 mm/hr 0.07 in1.8 mm
02:45 AM 53.2°F11.8°C 52.3°F11.3°C 97% 2.0 mph WSW3.2 kmh WSW 1.1 mph1.8 kmh 30.01 in1016.3 mb 0.00 in0.0 mm 0.00 in/hr0.0 mm/hr 0.07 in1.8 mm
02:35 AM 53.2°F11.8°C 52.3°F11.3°C 97% 0.9 mph SSW1.4 kmh SSW 0.7 mph1.1 kmh 30.01 in1016.3 mb 0.00 in0.0 mm 0.00 in/hr0.0 mm/hr 0.06 in1.5 mm
02:24 AM 53.2°F11.8°C 52.3°F11.3°C 97% 0.9 mph SW1.4 kmh SW 1.8 mph2.9 kmh 30.01 in1016.3 mb 0.00 in0.0 mm 0.00 in/hr0.0 mm/hr 0.06 in1.5 mm
02:14 AM 53.1°F11.7°C 52.2°F11.2°C 97% 1.3 mph WSW2.1 kmh WSW 1.3 mph2.1 kmh 30.02 in1016.6 mb 0.00 in0.0 mm 0.00 in/hr0.0 mm/hr 0.06 in1.5 mm
02:03 AM 53.1°F11.7°C 52.2°F11.2°C 97% 2.0 mph SW3.2 kmh SW 2.5 mph4.0 kmh 30.02 in1016.6 mb 0.00 in0.0 mm 0.00 in/hr0.0 mm/hr 0.06 in1.5 mm
01:53 AM 53.1°F11.7°C 52.0°F11.1°C 96% 1.1 mph WSW1.8 kmh WSW 3.4 mph5.5 kmh 30.02 in1016.6 mb 0.04 in1.0 mm 0.00 in/hr0.0 mm/hr 0.06 in1.5 mm
01:42 AM 53.1°F11.7°C 52.0°F11.1°C 96% 2.0 mph SW3.2 kmh SW 1.8 mph2.9 kmh 30.02 in1016.6 mb 0.12 in3.0 mm 0.72 in/hr18.3 mm/hr 0.06 in1.5 mm
01:32 AM 53.1°F11.7°C 52.0°F11.1°C 96% 0.9 mph SW1.4 kmh SW 2.0 mph3.2 kmh 30.02 in1016.6 mb 0.00 in0.0 mm 0.00 in/hr0.0 mm/hr 0.04 in1.0 mm
01:21 AM 53.1°F11.7°C 52.0°F11.1°C 96% 2.0 mph SW3.2 kmh SW 1.6 mph2.6 kmh 30.02 in1016.6 mb 0.00 in0.0 mm 0.00 in/hr0.0 mm/hr 0.04 in1.0 mm
01:11 AM 53.1°F11.7°C 52.0°F11.1°C 96% 2.0 mph SW3.2 kmh SW 3.1 mph5.0 kmh 30.02 in1016.6 mb 0.00 in0.0 mm 0.00 in/hr0.0 mm/hr 0.03 in0.8 mm
01:00 AM 52.9°F11.6°C 51.8°F11.0°C 96% 2.0 mph SW3.2 kmh SW 1.8 mph2.9 kmh 30.02 in1016.6 mb 0.00 in0.0 mm 0.00 in/hr0.0 mm/hr 0.03 in0.8 mm
12:50 AM 52.9°F11.6°C 51.8°F11.0°C 96% 2.0 mph SW3.2 kmh SW 2.0 mph3.2 kmh 30.02 in1016.6 mb 0.00 in0.0 mm 0.00 in/hr0.0 mm/hr 0.03 in0.8 mm
12:39 AM 52.9°F11.6°C 51.8°F11.0°C 96% 2.0 mph SSW3.2 kmh SSW 0.9 mph1.4 kmh 30.02 in1016.6 mb 0.00 in0.0 mm 0.00 in/hr0.0 mm/hr 0.03 in0.8 mm
12:29 AM 52.9°F11.6°C 51.8°F11.0°C 96% 2.9 mph SW4.7 kmh SW 2.5 mph4.0 kmh 30.02 in1016.6 mb 0.00 in0.0 mm 0.00 in/hr0.0 mm/hr 0.03 in0.8 mm
12:18 AM 52.7°F11.5°C 51.6°F10.9°C 96% 2.0 mph SW3.2 kmh SW 2.5 mph4.0 kmh 30.02 in1016.6 mb 0.00 in0.0 mm 0.00 in/hr0.0 mm/hr 0.02 in0.5 mm
12:08 AM 52.7°F11.5°C 51.6°F10.9°C 96% 2.0 mph SSW3.2 kmh SSW 2.5 mph4.0 kmh 30.02 in1016.6 mb 0.00 in0.0 mm 0.00 in/hr0.0 mm/hr 0.02 in0.5 mm